Terminal Aerodrome Forecast
Issued by NWS

Home | Current Version | Previous Version | Text Only | Print | Product List | Glossary On
Versions: 1 2 3 4 5 6 7 8 9 10 11 12 13 14 15 16 17
000
FTUS41 KBGM 040539
TAFELM
TAF
KELM 040539Z 0406/0506 32006KT P6SM OVC035
      TEMPO 0406/0410 -SN OVC025
     FM041000 31005KT P6SM OVC020
     FM041400 31004KT P6SM BKN035
     FM050400 15004KT 2SM -SN OVC025=

USA.gov is the U.S. government's official web portal to all federal, state and local government web resources and services.